createdAt,value
2018-04-07T17:14:55.840Z,7.00
2018-04-07T17:15:59.151Z,5.00
2018-04-07T17:17:02.624Z,7.25
2018-04-07T17:18:05.943Z,7.00
2018-04-07T17:19:09.264Z,7.00
2018-04-07T17:20:12.740Z,6.75
2018-04-07T17:21:16.227Z,5.00
2018-04-07T17:22:19.652Z,6.00
2018-04-07T17:23:23.727Z,5.75
2018-04-07T17:24:27.129Z,7.00
2018-04-07T17:25:30.680Z,6.50
2018-04-07T17:26:35.025Z,6.00
2018-04-07T17:27:38.442Z,8.00
2018-04-07T17:28:41.945Z,6.00
2018-04-07T17:29:45.643Z,6.00
2018-04-07T17:30:48.911Z,8.00
2018-04-07T17:31:52.413Z,5.25
2018-04-07T17:32:55.767Z,6.00
2018-04-07T17:33:59.236Z,6.00
2018-04-07T17:35:02.611Z,6.00
2018-04-07T17:36:06.541Z,7.50
2018-04-07T17:37:09.806Z,8.75
2018-04-07T17:38:13.134Z,6.00
2018-04-07T17:39:16.605Z,6.00
2018-04-07T17:40:20.079Z,5.00
2018-04-07T17:41:23.527Z,5.25
2018-04-07T17:42:27.468Z,8.00
2018-04-07T17:43:30.931Z,5.50
2018-04-07T17:44:34.472Z,8.75
2018-04-07T17:45:37.892Z,6.50
2018-04-07T17:46:41.298Z,8.50
2018-04-07T17:47:44.682Z,6.00
2018-04-07T17:48:48.715Z,6.50
2018-04-07T17:49:52.139Z,7.00
2018-04-07T17:50:55.663Z,6.00
2018-04-07T17:51:59.193Z,8.75
2018-04-07T17:53:02.721Z,7.50
2018-04-07T17:54:06.160Z,6.50
2018-04-07T17:55:10.091Z,6.00
2018-04-07T17:56:13.556Z,5.25
2018-04-07T17:57:17.128Z,8.00
2018-04-07T17:58:20.627Z,8.25
2018-04-07T17:59:24.004Z,8.00
2018-04-07T18:00:27.330Z,9.00
2018-04-07T18:01:30.693Z,8.75
2018-04-07T18:02:34.065Z,7.00
2018-04-07T18:03:37.415Z,8.00
2018-04-07T18:04:40.706Z,6.50
2018-04-07T18:05:44.175Z,8.00
2018-04-07T18:06:47.660Z,8.75
2018-04-07T18:07:51.596Z,7.50
2018-04-07T18:08:54.924Z,6.00
2018-04-07T18:09:58.291Z,8.00
2018-04-07T18:11:01.619Z,8.00
2018-04-07T18:12:05.071Z,9.00
2018-04-07T18:13:08.519Z,8.50
2018-04-07T18:14:12.437Z,8.50
2018-04-07T18:15:17.496Z,8.00
2018-04-07T18:16:20.723Z,10.25
2018-04-07T18:17:23.998Z,8.00
2018-04-07T18:18:28.472Z,8.75
2018-04-07T18:19:31.705Z,9.00
2018-04-07T18:20:35.278Z,8.00
2018-04-07T18:21:38.726Z,8.00
2018-04-07T18:22:42.076Z,9.00
2018-04-07T18:23:45.411Z,7.25
2018-04-07T18:24:48.778Z,8.25
2018-04-07T18:25:52.271Z,9.00
2018-04-07T18:26:56.123Z,7.00
2018-04-07T18:27:59.591Z,8.75
2018-04-07T18:29:02.964Z,8.00
2018-04-07T18:30:06.400Z,8.75
2018-04-07T18:31:09.793Z,8.00
2018-04-07T18:32:13.199Z,8.25
2018-04-07T18:33:17.113Z,9.00
2018-04-07T18:34:20.560Z,9.00
2018-04-07T18:35:23.964Z,7.50
2018-04-07T18:36:27.247Z,8.00
2018-04-07T18:37:30.500Z,8.25
2018-04-07T18:38:33.861Z,7.00
2018-04-07T18:39:37.568Z,8.00
2018-04-07T18:40:40.964Z,6.00
2018-04-07T18:41:44.348Z,7.50
2018-04-07T18:42:47.656Z,6.00
2018-04-07T18:43:51.049Z,8.25
2018-04-07T18:44:54.379Z,8.25
2018-04-07T18:45:58.333Z,9.00
2018-04-07T18:47:01.669Z,8.25
2018-04-07T18:48:05.144Z,8.00
2018-04-07T18:49:08.560Z,8.50
2018-04-07T18:50:11.915Z,5.00
2018-04-07T18:51:15.287Z,5.25
2018-04-07T18:52:19.020Z,9.00
2018-04-07T18:53:22.459Z,9.00
2018-04-07T18:54:25.901Z,8.00
2018-04-07T18:55:29.203Z,6.50
2018-04-07T18:56:32.574Z,10.50
2018-04-07T18:57:35.969Z,8.75
2018-04-07T18:58:39.427Z,8.00
2018-04-07T18:59:42.814Z,6.00
2018-04-07T19:00:46.146Z,8.00
2018-04-07T19:01:49.624Z,8.25
2018-04-07T19:02:53.083Z,5.00
2018-04-07T19:03:56.746Z,5.00
2018-04-07T19:05:00.135Z,7.50
2018-04-07T19:06:03.678Z,7.00
2018-04-07T19:07:07.219Z,6.00
2018-04-07T19:08:10.722Z,5.75
2018-04-07T19:09:14.213Z,5.75
2018-04-07T19:10:18.243Z,6.00
2018-04-07T19:11:21.728Z,8.00
2018-04-07T19:12:25.137Z,6.00
2018-04-07T19:13:28.571Z,6.50
2018-04-07T19:14:31.990Z,6.50
2018-04-07T19:15:35.268Z,6.00
2018-04-07T19:16:38.995Z,6.00
2018-04-07T19:17:42.267Z,7.50
2018-04-07T19:18:45.726Z,6.00
2018-04-07T19:19:49.107Z,9.00
2018-04-07T19:20:52.589Z,6.00
2018-04-07T19:21:55.914Z,8.00
2018-04-07T19:22:59.659Z,8.00
2018-04-07T19:24:03.121Z,8.50
2018-04-07T19:25:06.277Z,7.50
2018-04-07T19:26:09.613Z,9.00
2018-04-07T19:27:12.951Z,9.00
2018-04-07T19:28:16.309Z,8.00
2018-04-07T19:29:20.184Z,6.50
2018-04-07T19:30:23.542Z,8.50
2018-04-07T19:31:27.902Z,8.00
2018-04-07T19:32:31.155Z,8.25
2018-04-07T19:33:34.388Z,6.00
2018-04-07T19:34:37.628Z,6.00
2018-04-07T19:35:41.633Z,8.00
2018-04-07T19:36:45.007Z,8.50
2018-04-07T19:37:48.347Z,8.00
2018-04-07T19:38:52.184Z,5.25
2018-04-07T19:39:55.460Z,5.50
2018-04-07T19:40:58.740Z,6.50
2018-04-07T19:42:02.512Z,7.50
2018-04-07T19:43:05.935Z,9.00
2018-04-07T19:44:09.309Z,7.50
2018-04-07T19:45:12.644Z,9.00
2018-04-07T19:46:15.973Z,8.75
2018-04-07T19:47:19.288Z,12.50
2018-04-07T19:48:23.110Z,12.00
2018-04-07T19:49:26.496Z,10.00
2018-04-07T19:50:29.780Z,11.00
2018-04-07T19:51:33.282Z,11.00
2018-04-07T19:52:36.683Z,9.50
2018-04-07T19:53:40.082Z,10.00
2018-04-07T19:54:43.799Z,8.00
2018-04-07T19:55:47.266Z,10.75
2018-04-07T19:56:50.605Z,10.50
2018-04-07T19:57:53.821Z,11.00
2018-04-07T19:58:57.334Z,8.00
2018-04-07T20:00:01.220Z,9.00
2018-04-07T20:01:04.995Z,9.00
2018-04-07T20:02:08.482Z,6.75
2018-04-07T20:03:11.907Z,7.25
2018-04-07T20:04:15.258Z,8.00
2018-04-07T20:05:18.581Z,9.00
2018-04-07T20:06:21.894Z,7.75
2018-04-07T20:07:25.630Z,6.25
2018-04-07T20:08:29.007Z,9.00
2018-04-07T20:09:32.315Z,6.00
2018-04-07T20:10:35.671Z,8.00
2018-04-07T20:17:47.029Z,8.00
2018-04-07T20:18:50.349Z,7.50
2018-04-07T20:19:53.668Z,7.75
2018-04-07T20:20:56.911Z,8.00
2018-04-07T20:22:00.207Z,8.00
2018-04-07T20:23:03.484Z,6.50
2018-04-07T20:24:06.813Z,11.00
2018-04-07T20:25:10.072Z,10.00
2018-04-07T20:26:13.355Z,8.25
2018-04-07T20:27:17.132Z,7.50
2018-04-07T20:28:20.746Z,7.25
2018-04-07T20:29:24.576Z,9.00
2018-04-07T20:30:28.523Z,7.00
2018-04-07T20:31:32.419Z,8.00
2018-04-07T20:32:36.308Z,7.00
2018-04-07T20:33:39.744Z,7.75
2018-04-07T20:34:43.110Z,8.00
2018-04-07T20:35:46.891Z,8.25
2018-04-07T20:36:50.187Z,9.75
2018-04-07T20:37:53.536Z,9.75
2018-04-07T20:38:56.879Z,8.00
2018-04-07T20:40:00.229Z,9.75
2018-04-07T20:41:03.618Z,8.00
2018-04-07T20:42:07.427Z,7.25
2018-04-07T20:43:10.707Z,8.75
2018-04-07T20:44:14.037Z,9.75
2018-04-07T20:45:17.376Z,12.00
2018-04-07T20:46:20.752Z,12.00
2018-04-07T20:47:24.134Z,10.75
2018-04-07T20:48:29.110Z,8.00
2018-04-07T20:49:32.426Z,11.00
2018-04-07T20:50:35.971Z,10.00
2018-04-07T20:51:39.328Z,9.00
2018-04-07T20:52:42.760Z,9.75
2018-04-07T20:53:46.112Z,8.00
2018-04-07T20:54:49.535Z,7.75
2018-04-07T20:55:53.029Z,10.25
2018-04-07T20:56:56.533Z,5.50
2018-04-07T20:57:59.980Z,8.00
2018-04-07T20:59:03.400Z,10.25
2018-04-07T21:00:07.400Z,7.00
2018-04-07T21:01:10.777Z,8.50
2018-04-07T21:02:14.156Z,5.50
2018-04-07T21:03:17.549Z,6.50
2018-04-07T21:04:20.869Z,7.00
2018-04-07T21:05:24.335Z,7.00
2018-04-07T21:06:27.635Z,7.75
2018-04-07T21:07:30.939Z,8.00
2018-04-07T21:08:34.222Z,7.75
2018-04-07T21:09:37.632Z,9.00
2018-04-07T21:10:41.406Z,7.75
2018-04-07T21:11:44.850Z,9.75
2018-04-07T21:12:48.168Z,9.25
2018-04-07T21:13:51.506Z,15.00
2018-04-07T21:14:54.867Z,17.50
2018-04-07T21:15:58.180Z,17.25
2018-04-07T21:17:02.119Z,15.00
2018-04-07T21:18:05.423Z,14.75
2018-04-07T21:19:08.784Z,13.00
2018-04-07T21:20:12.131Z,13.25
2018-04-07T21:21:15.635Z,12.00
2018-04-07T21:22:19.007Z,11.00
2018-04-07T21:23:22.808Z,12.00
2018-04-07T21:24:26.177Z,14.00
2018-04-07T21:25:29.509Z,11.00
2018-04-07T21:26:32.932Z,12.75
2018-04-07T21:27:36.388Z,12.75
2018-04-07T21:28:39.664Z,9.50
2018-04-07T21:29:43.475Z,11.00
2018-04-07T21:30:46.831Z,13.50
2018-04-07T21:31:50.254Z,12.00
2018-04-07T21:32:53.731Z,12.75
2018-04-07T21:33:57.256Z,12.00
2018-04-07T21:35:00.651Z,10.50
2018-04-07T21:36:04.402Z,11.00
2018-04-07T21:37:07.838Z,12.00
2018-04-07T21:38:11.266Z,11.00
2018-04-07T21:39:14.637Z,11.00
2018-04-07T21:40:18.015Z,13.00
2018-04-07T21:41:21.425Z,8.00
2018-04-07T21:42:25.139Z,13.75
2018-04-07T21:43:28.592Z,14.00
2018-04-07T21:44:31.971Z,13.50
2018-04-07T21:45:35.327Z,13.50
2018-04-07T21:46:38.788Z,13.25
2018-04-07T21:47:42.238Z,11.25
2018-04-07T21:48:46.079Z,14.50
2018-04-07T21:49:49.490Z,15.00
2018-04-07T21:50:53.061Z,13.50
2018-04-07T21:51:56.544Z,10.75
2018-04-07T21:53:00.200Z,13.25
2018-04-07T21:54:03.638Z,14.00
2018-04-07T21:55:07.325Z,10.00
2018-04-07T21:56:10.683Z,11.00
2018-04-07T21:57:14.012Z,10.50
2018-04-07T21:58:17.394Z,10.75
2018-04-07T21:59:20.854Z,13.50
2018-04-07T22:00:24.230Z,13.50
2018-04-07T22:01:27.964Z,14.50
2018-04-07T22:02:31.491Z,12.50
2018-04-07T22:03:34.906Z,15.50
2018-04-07T22:04:38.516Z,10.75
2018-04-07T22:05:41.944Z,10.00
2018-04-07T22:06:45.278Z,10.75
2018-04-07T22:07:49.056Z,11.00
2018-04-07T22:08:53.091Z,12.00
2018-04-07T22:09:56.682Z,10.50
2018-04-07T22:11:00.186Z,7.25
2018-04-07T22:12:03.880Z,14.00
2018-04-07T22:13:07.398Z,16.00
2018-04-07T22:14:11.193Z,13.50
2018-04-07T22:15:14.763Z,8.00
2018-04-07T22:16:18.135Z,16.50
2018-04-07T22:17:21.597Z,13.00
2018-04-07T22:18:25.146Z,10.50
2018-04-07T22:19:28.770Z,10.50
2018-04-07T22:20:32.601Z,12.25
2018-04-07T22:21:36.039Z,13.00
2018-04-07T22:22:39.422Z,9.00
2018-04-07T22:23:42.775Z,8.00
2018-04-07T22:24:46.248Z,10.25
2018-04-07T22:25:49.688Z,13.00
2018-04-07T22:26:53.372Z,20.75
2018-04-07T22:27:56.723Z,17.75
2018-04-07T22:28:59.897Z,16.75
2018-04-07T22:30:03.154Z,17.75
2018-04-07T22:31:06.932Z,14.75
2018-04-07T22:32:10.477Z,16.00
2018-04-07T22:33:14.719Z,14.75
2018-04-07T22:34:18.120Z,16.00
2018-04-07T22:35:21.767Z,14.75
2018-04-07T22:36:25.340Z,24.75
2018-04-07T22:37:28.760Z,15.25
2018-04-07T22:38:32.733Z,14.75
2018-04-07T22:39:36.118Z,11.25
2018-04-07T22:40:39.656Z,10.00
2018-04-07T22:41:43.153Z,10.75
2018-04-07T22:42:47.246Z,13.00
2018-04-07T22:43:50.665Z,8.75
2018-04-07T22:44:54.418Z,10.75
2018-04-07T22:45:57.846Z,11.75
2018-04-07T22:47:01.268Z,15.25
2018-04-07T22:48:04.642Z,16.00
2018-04-07T22:49:08.232Z,14.75
2018-04-07T22:50:11.681Z,11.75
2018-04-07T22:51:15.721Z,13.00
2018-04-07T22:52:19.271Z,12.25
2018-04-07T22:53:22.762Z,11.75
2018-04-07T22:54:26.258Z,12.00
2018-04-07T22:55:29.857Z,12.50
2018-04-07T22:56:33.243Z,19.25
2018-04-07T22:57:36.737Z,16.00
2018-04-07T22:58:40.109Z,14.75
2018-04-07T22:59:43.500Z,15.00
2018-04-07T23:00:46.866Z,15.00
2018-04-07T23:01:50.336Z,11.00
2018-04-07T23:02:54.171Z,12.75
2018-04-07T23:03:57.535Z,13.00
2018-04-07T23:05:00.972Z,15.00
2018-04-07T23:06:04.489Z,15.75
2018-04-07T23:07:08.038Z,14.50
2018-04-07T23:08:11.454Z,13.00
2018-04-07T23:09:15.588Z,10.50
2018-04-07T23:10:19.137Z,9.75
2018-04-07T23:11:22.763Z,12.00
2018-04-07T23:12:26.310Z,10.00
2018-04-07T23:13:29.935Z,9.75
2018-04-07T23:14:33.311Z,15.00
2018-04-07T23:15:37.367Z,10.25
2018-04-07T23:16:41.004Z,12.00
2018-04-07T23:17:44.565Z,15.25
2018-04-07T23:18:48.204Z,12.75
2018-04-07T23:19:51.885Z,17.00
2018-04-07T23:20:55.479Z,17.00
2018-04-07T23:21:59.745Z,18.75
2018-04-07T23:23:03.307Z,18.25
2018-04-07T23:24:06.982Z,16.50
2018-04-07T23:25:10.378Z,15.00
2018-04-07T23:26:13.735Z,14.75
2018-04-07T23:27:17.283Z,15.25
2018-04-07T23:28:21.230Z,12.00
2018-04-07T23:29:24.986Z,12.25
2018-04-07T23:30:28.634Z,12.00
2018-04-07T23:31:32.164Z,16.00
2018-04-07T23:32:35.635Z,12.50
2018-04-07T23:33:39.273Z,12.25
2018-04-07T23:34:43.194Z,12.75
2018-04-07T23:35:46.622Z,11.00
2018-04-07T23:36:50.460Z,10.00
2018-04-07T23:37:54.071Z,12.25
2018-04-07T23:38:57.575Z,11.00
2018-04-07T23:40:01.259Z,12.50
2018-04-07T23:41:04.899Z,9.50
2018-04-07T23:42:08.477Z,14.00
2018-04-07T23:43:11.947Z,11.50
2018-04-07T23:44:15.494Z,13.00
2018-04-07T23:45:19.138Z,11.00
2018-04-07T23:46:22.811Z,12.00
2018-04-07T23:47:26.841Z,12.00
2018-04-07T23:48:30.577Z,12.50
2018-04-07T23:49:34.135Z,14.00
2018-04-07T23:50:37.743Z,14.00
2018-04-07T23:51:41.470Z,12.00
2018-04-07T23:52:45.078Z,12.50
2018-04-07T23:53:48.999Z,11.50
2018-04-07T23:54:52.469Z,13.50
2018-04-07T23:55:56.168Z,12.75
2018-04-07T23:57:00.458Z,11.50
2018-04-07T23:58:04.514Z,12.50
2018-04-07T23:59:08.129Z,12.50
